»·PEaware :: WAT169 KOXR-KSAN

WAT169 :: KOXR-KSAN

FLIGHT INFORMATION

Flight Status: Arrived
Operator: Unknown
More flights by this operator :: More flights under this callsign
Pilot: Marty P. (27464)
Aircraft: SOCATA TBM-900
(TBM9)
More flights by this aircraft type
Origin: KOXR Oxnard
United States
Destination: KSAN San Diego Intl-Lindbergh
United States
More flights between these airports :: More routes between these airports
Route: VTU V208 SXC V208 LAX118R CARDI MZB320R MZB
File this flight plan on PilotEdge
Remarks: TEC route VTUP28
Altitude:
(Current/Filed)
9,000ft
Speed:
(Current/Filed)
215kts
Departed: 01-Aug-20 05:58 PM
Arrived: 01-Aug-20 06:51 PM
Distance/Time
Traveled:
134nm/0:52
Distance/Time
To Go:
Arrived

Flight Plot

Page will automatically refresh every two minutes.


Map Options




Map Legend


Flown Route
Filed Route
Departure Airport
Arrival Airport
Navaid (VOR, NDB)
Fix

Horizontal Profiles

Position Reports

Time Latitude Longitude Heading Altitude Ground
Speed
01-Aug-20 17:31 34.199406 -119.214890 85 44ft 0kts
01-Aug-20 17:32 34.199406 -119.214890 85 44ft 0kts
01-Aug-20 17:33 34.199406 -119.214890 85 44ft 0kts
01-Aug-20 17:34 34.199406 -119.214890 85 44ft 0kts
01-Aug-20 17:35 34.199406 -119.214890 85 44ft 0kts
01-Aug-20 17:36 34.199406 -119.214890 85 44ft 0kts
01-Aug-20 17:37 34.199406 -119.214890 85 44ft 0kts
01-Aug-20 17:38 34.199406 -119.214890 85 44ft 0kts
01-Aug-20 17:39 34.199406 -119.214890 85 44ft 0kts
01-Aug-20 17:40 34.199406 -119.214890 85 44ft 0kts
01-Aug-20 17:41 34.199406 -119.214889 85 44ft 0kts
01-Aug-20 17:42 34.199406 -119.214889 85 44ft 0kts
01-Aug-20 17:43 34.199406 -119.214890 85 44ft 0kts
01-Aug-20 17:44 34.199406 -119.214890 85 44ft 0kts
01-Aug-20 17:45 34.199406 -119.214890 85 44ft 0kts
01-Aug-20 17:47 34.199406 -119.214890 85 44ft 0kts
01-Aug-20 17:48 34.199423 -119.214840 48 44ft 1kts
01-Aug-20 17:49 34.199851 -119.214178 92 44ft 5kts
01-Aug-20 17:50 34.199841 -119.211985 91 44ft 7kts
01-Aug-20 17:51 34.199815 -119.209377 90 44ft 9kts
01-Aug-20 17:52 34.199786 -119.205199 90 44ft 14kts
01-Aug-20 17:53 34.199752 -119.200585 90 44ft 12kts
01-Aug-20 17:54 34.199845 -119.197595 37 44ft 1kts
01-Aug-20 17:55 34.200003 -119.197537 3 44ft 0kts
01-Aug-20 17:56 34.200003 -119.197537 3 44ft 0kts
01-Aug-20 17:57 34.200313 -119.197531 0 44ft 11kts
01-Aug-20 17:58 34.200830 -119.214109 268 249ft 122kts
01-Aug-20 17:59 34.199784 -119.261709 267 1753ft 166kts
01-Aug-20 18:00 34.196039 -119.322354 267 3200ft 189kts
01-Aug-20 18:00 34.192276 -119.368021 267 4507ft 189kts
01-Aug-20 18:02 34.169031 -119.429000 176 6457ft 213kts
01-Aug-20 18:03 34.132574 -119.372077 121 7916ft 225kts
01-Aug-20 18:04 34.100458 -119.305618 120 9018ft 240kts
01-Aug-20 18:04 34.070625 -119.242868 120 9017ft 271kts
01-Aug-20 18:06 34.025346 -119.147715 120 9012ft 283kts
01-Aug-20 18:07 33.984787 -119.066829 136 8989ft 279kts
01-Aug-20 18:07 33.937838 -119.013802 139 9008ft 277kts
01-Aug-20 18:08 33.880071 -118.952180 139 9009ft 276kts
01-Aug-20 18:09 33.822310 -118.890866 140 9008ft 276kts
01-Aug-20 18:10 33.764288 -118.829388 139 9007ft 276kts
01-Aug-20 18:11 33.706262 -118.768018 139 8990ft 277kts
01-Aug-20 18:12 33.648011 -118.706528 139 8936ft 277kts
01-Aug-20 18:13 33.589988 -118.645391 139 8937ft 276kts
01-Aug-20 18:14 33.532194 -118.584611 139 8956ft 276kts
01-Aug-20 18:15 33.474319 -118.523854 139 8977ft 275kts
01-Aug-20 18:16 33.416467 -118.463237 139 8993ft 275kts
01-Aug-20 18:17 33.371401 -118.392579 97 9004ft 276kts
01-Aug-20 18:18 33.359781 -118.302786 98 8990ft 277kts
01-Aug-20 18:19 33.347778 -118.211314 98 8989ft 277kts
01-Aug-20 18:20 33.335593 -118.118976 98 8990ft 282kts
01-Aug-20 18:21 33.323209 -118.025819 98 8981ft 283kts
01-Aug-20 18:22 33.310802 -117.932875 98 8960ft 282kts
01-Aug-20 18:23 33.298265 -117.839627 98 8961ft 281kts
01-Aug-20 18:24 33.285751 -117.747292 99 9000ft 281kts
01-Aug-20 18:25 33.271912 -117.655244 99 9002ft 281kts
01-Aug-20 18:26 33.251696 -117.566351 132 8988ft 278kts
01-Aug-20 18:27 33.198236 -117.499101 134 9001ft 278kts
01-Aug-20 18:28 33.144513 -117.431860 134 9000ft 278kts
01-Aug-20 18:29 33.078280 -117.389492 156 7618ft 271kts
01-Aug-20 18:30 33.013376 -117.352911 156 7000ft 237kts
01-Aug-20 18:31 32.955359 -117.321122 157 7020ft 233kts
01-Aug-20 18:32 32.891954 -117.286101 156 7021ft 261kts
01-Aug-20 18:33 32.825510 -117.249340 156 7014ft 255kts
01-Aug-20 18:34 32.772342 -117.204085 101 7015ft 242kts
01-Aug-20 18:35 32.759616 -117.129553 101 6998ft 203kts
01-Aug-20 18:36 32.749498 -117.068554 101 5513ft 188kts
01-Aug-20 18:37 32.740347 -117.011045 101 5021ft 176kts
01-Aug-20 18:38 32.731008 -116.952084 101 5011ft 179kts
01-Aug-20 18:39 32.721985 -116.894511 101 5013ft 175kts
01-Aug-20 18:40 32.710640 -116.837877 135 5003ft 176kts
01-Aug-20 18:41 32.679216 -116.860617 251 5024ft 164kts
01-Aug-20 18:42 32.664111 -116.912197 251 5017ft 165kts
01-Aug-20 18:43 32.678848 -116.961828 282 4726ft 151kts
01-Aug-20 18:44 32.690775 -117.012667 284 2930ft 155kts
01-Aug-20 18:45 32.700358 -117.052413 284 2675ft 110kts
01-Aug-20 18:46 32.709981 -117.092559 285 2003ft 128kts
01-Aug-20 18:47 32.718587 -117.127892 283 1414ft 92kts
01-Aug-20 18:48 32.724931 -117.154303 286 597ft 84kts
01-Aug-20 18:49 32.731662 -117.181353 287 24ft 70kts
01-Aug-20 18:50 32.732489 -117.188641 224 20ft 0kts
01-Aug-20 18:51 32.732456 -117.189372 285 20ft 8kts
01-Aug-20 18:52 32.732291 -117.191090 281 20ft 0kts
01-Aug-20 18:53 32.732291 -117.191090 281 20ft 0kts
01-Aug-20 18:54 32.732291 -117.191090 281 20ft 0kts

Navigation Log

Ident Type
Flight plan parsing failed, navigation log unavailable